Time;durP1;ratioP1;P1;durP2;ratioP2;P2;SDS_P1;SDS_P2;PMS_P1;PMS_P2;Temp;Humidity;BMP_temperature;BMP_pressure;BME280_temperature;BME280_humidity;BME280_pressure;Samples;Min_cycle;Max_cycle;Signal;HPM_P1;HPM_P2
2022/01/02 00:01:47;;;;;;;;;46.75;37.75;;;;;9.90;70.63;101267.28;5037778;28;47346;-64
2022/01/02 00:04:20;;;;;;;;;41.75;37.00;;;;;9.90;70.60;101262.03;5046180;28;45563;-63
2022/01/02 00:06:53;;;;;;;;;49.00;38.50;;;;;9.92;70.68;101257.50;5057377;28;45653;-63
2022/01/02 00:09:27;;;;;;;;;46.00;36.00;;;;;9.94;70.77;101247.72;5039373;28;45350;-63
2022/01/02 00:11:53;;;;;;;;;51.00;41.50;;;;;9.96;70.66;101247.59;5059854;28;46429;-63
2022/01/02 00:14:20;;;;;;;;;45.50;38.25;;;;;9.96;70.62;101252.84;5056222;28;45237;-62
2022/01/02 00:16:46;;;;;;;;;43.50;34.25;;;;;9.98;70.35;101247.50;5055197;28;45404;-62
2022/01/02 00:19:27;;;;;;;;;57.25;43.50;;;;;9.98;70.61;101239.63;5041823;28;45561;-63
2022/01/02 00:21:54;;;;;;;;;42.25;36.00;;;;;9.99;70.47;101234.25;5042314;28;46368;-65
2022/01/02 00:24:21;;;;;;;;;48.50;37.25;;;;;10.02;70.67;101235.81;5041433;28;45244;-63
2022/01/02 00:26:48;;;;;;;;;49.75;38.00;;;;;10.02;70.41;101235.81;5060411;28;45615;-64
2022/01/02 00:29:13;;;;;;;;;50.25;42.00;;;;;10.03;70.82;101229.63;5049951;28;45652;-63
2022/01/02 00:31:39;;;;;;;;;39.50;35.50;;;;;10.03;70.72;101232.25;5049739;28;46176;-63
2022/01/02 00:34:05;;;;;;;;;41.50;34.50;;;;;10.04;70.43;101229.47;5049773;28;45448;-64
2022/01/02 00:36:30;;;;;;;;;39.00;34.75;;;;;10.06;70.91;101232.84;5069077;28;45445;-65
2022/01/02 00:38:56;;;;;;;;;39.00;34.75;;;;;10.08;70.53;101235.31;5041849;28;45506;-65
2022/01/02 00:41:48;;;;;;;;;42.50;36.25;;;;;10.10;70.72;101236.06;5049466;28;46209;-64
2022/01/02 00:44:16;;;;;;;;;33.75;31.75;;;;;10.12;70.69;101243.81;5035085;28;45502;-63
2022/01/02 00:47:25;;;;;;;;;35.00;31.75;;;;;10.13;70.52;101251.56;5046870;28;45513;-65
2022/01/02 00:50:01;;;;;;;;;35.00;29.75;;;;;10.12;70.94;101244.66;5048093;28;45859;-65
2022/01/02 00:52:26;;;;;;;;;35.50;32.00;;;;;10.10;70.50;101236.06;5058839;28;45347;-63
2022/01/02 00:54:51;;;;;;;;;38.50;34.25;;;;;10.09;70.61;101224.72;5039933;28;73186;-63
2022/01/02 00:57:17;;;;;;;;;38.75;34.00;;;;;10.11;70.60;101240.34;5043060;28;61463;-63
2022/01/02 00:59:48;;;;;;;;;33.50;30.50;;;;;10.11;70.73;101242.97;5045462;28;45617;-61
2022/01/02 01:02:15;;;;;;;;;34.00;31.75;;;;;10.10;70.96;101241.31;5051422;28;46173;-63
2022/01/02 01:04:42;;;;;;;;;39.00;32.50;;;;;10.12;70.84;101247.28;5054653;28;46077;-64
2022/01/02 01:07:08;;;;;;;;;34.25;32.25;;;;;10.13;71.17;101235.00;5041486;28;45386;-63
2022/01/02 01:09:33;;;;;;;;;35.00;31.75;;;;;10.15;71.16;101233.91;5052621;28;65040;-66
2022/01/02 01:12:00;;;;;;;;;33.50;32.00;;;;;10.17;71.06;101224.13;5042883;28;45480;-64
2022/01/02 01:14:26;;;;;;;;;31.75;31.00;;;;;10.20;70.95;101212.56;5057136;28;45450;-62
2022/01/02 01:16:52;;;;;;;;;30.25;26.75;;;;;10.20;70.71;101188.94;5044362;28;45264;-64
2022/01/02 01:19:18;;;;;;;;;37.00;28.00;;;;;10.22;70.53;101201.00;5047134;28;45221;-63
2022/01/02 01:21:43;;;;;;;;;35.25;29.25;;;;;10.27;70.44;101210.31;5046277;28;69528;-64
2022/01/02 01:24:08;;;;;;;;;31.75;30.00;;;;;10.27;70.42;101202.44;5042851;28;73455;-62
2022/01/02 01:26:34;;;;;;;;;30.50;27.50;;;;;10.28;70.43;101193.59;5045095;28;55015;-64
2022/01/02 01:29:00;;;;;;;;;28.50;27.25;;;;;10.31;70.54;101174.97;5047408;28;45507;-63
2022/01/02 01:31:25;;;;;;;;;26.50;24.50;;;;;10.31;70.29;101167.94;5038129;28;48099;-65
2022/01/02 01:33:51;;;;;;;;;35.25;30.00;;;;;10.33;70.40;101158.13;5054216;28;45320;-64
2022/01/02 01:36:16;;;;;;;;;28.50;26.50;;;;;10.36;70.08;101151.81;5055001;28;64645;-63
2022/01/02 01:38:42;;;;;;;;;31.00;27.50;;;;;10.37;69.90;101146.44;5046374;28;55585;-64
2022/01/02 01:41:11;;;;;;;;;26.75;24.00;;;;;10.39;69.90;101154.22;5049365;28;67479;-65
2022/01/02 01:43:39;;;;;;;;;26.50;24.00;;;;;10.38;70.17;101158.59;5057430;28;45398;-62
2022/01/02 01:46:05;;;;;;;;;32.00;31.50;;;;;10.38;69.95;101163.88;5074381;28;45385;-61
2022/01/02 01:48:30;;;;;;;;;27.50;26.25;;;;;10.41;70.09;101169.88;5057248;28;49524;-64
2022/01/02 01:50:56;;;;;;;;;29.50;25.75;;;;;10.42;69.81;101167.13;5058418;28;46603;-64
2022/01/02 01:53:21;;;;;;;;;29.00;26.50;;;;;10.43;69.73;101176.69;5057418;28;68076;-64
2022/01/02 01:55:46;;;;;;;;;26.25;22.75;;;;;10.45;69.78;101166.91;5057706;28;63875;-63
2022/01/02 01:58:12;;;;;;;;;28.25;23.00;;;;;10.48;70.15;101169.28;5074331;28;45453;-64
2022/01/02 02:00:37;;;;;;;;;23.50;23.00;;;;;10.49;69.58;101165.72;5057150;28;46104;-62
2022/01/02 02:03:03;;;;;;;;;27.75;24.00;;;;;10.52;69.57;101162.00;5057744;28;60445;-64
2022/01/02 02:05:28;;;;;;;;;25.00;20.75;;;;;10.52;69.85;101151.47;5074178;28;45341;-63
2022/01/02 02:07:54;;;;;;;;;23.25;21.00;;;;;10.55;69.71;101156.50;5058318;28;45494;-62
2022/01/02 02:10:26;;;;;;;;;22.25;20.00;;;;;10.58;69.41;101148.38;5058195;28;45358;-63
2022/01/02 02:12:53;;;;;;;;;21.50;19.50;;;;;10.62;68.95;101156.84;5058076;28;45317;-65
2022/01/02 02:15:18;;;;;;;;;20.00;19.00;;;;;10.63;68.84;101148.84;5057051;28;45283;-65
2022/01/02 02:17:44;;;;;;;;;22.75;22.00;;;;;10.67;68.90;101138.91;5073900;28;45429;-63
2022/01/02 02:20:20;;;;;;;;;23.00;21.00;;;;;10.68;68.24;101137.97;5056877;28;45583;-62
2022/01/02 02:22:48;;;;;;;;;16.75;16.75;;;;;10.70;68.57;101128.16;5058296;28;45369;-64
2022/01/02 02:25:15;;;;;;;;;20.25;20.00;;;;;10.71;68.71;101121.13;5058182;28;45449;-63
2022/01/02 02:27:47;;;;;;;;;20.75;19.75;;;;;10.73;68.09;101114.78;5058019;28;45385;-63
2022/01/02 02:30:13;;;;;;;;;17.75;16.00;;;;;10.74;67.97;101113.00;5056492;28;46012;-63
2022/01/02 02:32:38;;;;;;;;;18.00;16.25;;;;;10.74;67.94;101113.81;5056784;28;71043;-63
2022/01/02 02:35:04;;;;;;;;;18.75;17.25;;;;;10.75;68.34;101114.66;5073635;28;45326;-63
2022/01/02 02:37:30;;;;;;;;;22.75;19.25;;;;;10.77;68.15;101107.50;5058068;28;45287;-62
2022/01/02 02:39:55;;;;;;;;;18.50;17.50;;;;;10.79;67.50;101108.22;5057719;28;45428;-64
2022/01/02 02:42:41;;;;;;;;;18.50;17.75;;;;;10.81;67.84;101106.28;5057487;28;50781;-64
2022/01/02 02:50:46;;;;;;;;;18.25;17.75;;;;;10.82;67.64;101093.00;5057546;28;45501;-66
2022/01/02 02:53:16;;;;;;;;;19.00;17.00;;;;;10.82;66.98;101077.25;5073215;28;45355;-62
2022/01/02 02:55:47;;;;;;;;;19.25;18.75;;;;;10.82;67.11;101073.78;5057518;28;45322;-63
2022/01/02 03:00:57;;;;;;;;;18.25;15.75;;;;;10.84;66.96;101064.81;5070891;28;46048;-64
2022/01/02 03:03:22;;;;;;;;;16.75;15.50;;;;;10.83;67.29;101059.69;5056264;28;45390;-63
2022/01/02 03:05:47;;;;;;;;;18.50;16.00;;;;;10.84;67.31;101056.91;5056255;28;45664;-63
2022/01/02 03:08:13;;;;;;;;;23.00;17.50;;;;;10.87;66.75;101049.75;5072177;28;70515;-63
2022/01/02 03:10:38;;;;;;;;;20.75;15.00;;;;;10.88;66.99;101046.16;5056512;28;69127;-63
2022/01/02 03:13:03;;;;;;;;;16.00;15.00;;;;;10.89;66.79;101043.38;5056422;28;65825;-65
2022/01/02 03:15:29;;;;;;;;;20.50;17.00;;;;;10.90;67.09;101038.97;5056366;28;68314;-64
2022/01/02 03:17:54;;;;;;;;;17.50;17.00;;;;;10.88;66.67;101041.72;5056680;28;64201;-63
2022/01/02 03:20:20;;;;;;;;;18.25;14.25;;;;;10.89;66.46;101043.38;5071791;28;71341;-63
2022/01/02 03:22:45;;;;;;;;;14.50;12.00;;;;;10.92;66.53;101042.31;5056378;28;68418;-63
2022/01/02 03:25:13;;;;;;;;;17.00;13.50;;;;;10.93;66.53;101033.47;5055797;28;62057;-62
2022/01/02 03:27:39;;;;;;;;;15.50;15.00;;;;;10.93;66.25;101028.22;5056206;28;45537;-63
2022/01/02 03:30:06;;;;;;;;;21.25;17.00;;;;;10.94;66.64;101024.63;5057140;28;46540;-63
2022/01/02 03:32:31;;;;;;;;;17.75;16.00;;;;;10.95;66.41;101018.41;5072648;28;45997;-63
2022/01/02 03:34:56;;;;;;;;;16.50;14.50;;;;;10.97;66.13;101017.31;5056137;28;65198;-62
2022/01/02 03:37:22;;;;;;;;;19.75;17.25;;;;;10.97;65.91;101016.47;5056112;28;65315;-63
2022/01/02 03:39:47;;;;;;;;;16.25;15.00;;;;;10.96;66.05;101020.91;5056194;28;62749;-64
2022/01/02 03:42:12;;;;;;;;;19.75;15.25;;;;;10.98;66.35;101034.75;5056057;28;65533;-64
2022/01/02 03:44:38;;;;;;;;;14.00;12.75;;;;;10.99;65.95;101054.81;5057023;28;45255;-62
2022/01/02 03:47:03;;;;;;;;;13.75;13.75;;;;;11.01;66.19;101041.56;5056085;28;64836;-63
2022/01/02 03:49:29;;;;;;;;;17.00;14.25;;;;;11.04;66.25;101045.72;5055130;28;60690;-63
2022/01/02 03:51:56;;;;;;;;;13.75;13.75;;;;;11.05;66.03;101048.25;5055674;28;67947;-64
2022/01/02 03:54:21;;;;;;;;;15.00;15.00;;;;;11.07;66.01;101041.06;5056470;28;45504;-64
2022/01/02 03:56:50;;;;;;;;;15.75;14.75;;;;;11.11;65.72;101041.63;5055896;28;65398;-62
2022/01/02 03:59:15;;;;;;;;;14.50;14.50;;;;;11.15;66.03;101037.78;5056615;28;45301;-63
2022/01/02 04:01:40;;;;;;;;;15.00;12.00;;;;;11.18;65.57;101034.06;5056546;28;45334;-63
2022/01/02 04:04:06;;;;;;;;;16.25;13.25;;;;;11.20;65.15;101034.75;5055789;28;64707;-63
2022/01/02 04:06:31;;;;;;;;;14.75;14.00;;;;;11.23;65.56;101024.84;5055690;28;65392;-64
2022/01/02 04:08:56;;;;;;;;;14.50;13.75;;;;;11.25;65.66;101027.31;5055350;28;74617;-63
2022/01/02 04:11:22;;;;;;;;;15.75;12.50;;;;;11.26;65.29;101016.69;5055457;28;69437;-64
2022/01/02 04:13:47;;;;;;;;;15.00;13.75;;;;;11.28;65.39;101022.66;5055528;28;64157;-63
2022/01/02 04:16:12;;;;;;;;;13.75;13.00;;;;;11.32;65.29;101011.88;5071043;28;65251;-63
2022/01/02 04:18:38;;;;;;;;;15.00;13.50;;;;;11.35;64.68;101020.34;5055435;28;69491;-64
2022/01/02 04:21:03;;;;;;;;;16.00;13.00;;;;;11.36;64.70;101008.84;5055921;28;57377;-62
2022/01/02 04:23:29;;;;;;;;;15.50;14.75;;;;;11.38;64.92;101011.38;5056135;28;45362;-64
2022/01/02 04:25:54;;;;;;;;;13.00;13.00;;;;;11.41;64.34;101014.56;5071909;28;45560;-62
2022/01/02 04:28:19;;;;;;;;;14.75;13.00;;;;;11.42;64.48;101013.59;5056140;28;46217;-63
2022/01/02 04:30:45;;;;;;;;;14.50;13.75;;;;;11.43;65.01;101015.25;5055143;28;68620;-64
2022/01/02 04:33:10;;;;;;;;;15.00;12.50;;;;;11.44;64.37;101000.28;5055513;28;61336;-61
2022/01/02 04:35:35;;;;;;;;;12.25;11.50;;;;;11.46;64.98;100987.84;5055391;28;64546;-63
2022/01/02 04:38:01;;;;;;;;;18.75;15.25;;;;;11.48;64.23;100985.09;5058743;28;72550;-62
2022/01/02 04:40:26;;;;;;;;;15.50;12.75;;;;;11.50;64.36;100986.63;5059685;28;45325;-64
2022/01/02 04:42:52;;;;;;;;;14.00;14.00;;;;;11.50;64.73;100996.31;5059044;28;59944;-61
2022/01/02 04:45:17;;;;;;;;;15.50;13.75;;;;;11.50;64.53;100999.78;5058773;28;68661;-64
2022/01/02 04:47:42;;;;;;;;;17.25;14.50;;;;;11.51;64.46;100988.28;5058819;28;64048;-62
2022/01/02 04:50:08;;;;;;;;;13.00;13.00;;;;;11.51;64.15;100969.03;5058640;28;72020;-65
2022/01/02 04:52:34;;;;;;;;;17.50;14.00;;;;;11.51;64.14;100974.31;5059618;28;45285;-62
2022/01/02 04:54:59;;;;;;;;;13.75;13.25;;;;;11.50;64.60;100970.00;5058488;28;60576;-62
2022/01/02 04:57:25;;;;;;;;;11.75;11.75;;;;;11.49;64.25;100968.34;5059311;28;45463;-63
2022/01/02 04:59:50;;;;;;;;;14.00;12.50;;;;;11.49;63.97;100976.22;5074128;28;71132;-62
2022/01/02 05:02:15;;;;;;;;;13.25;11.25;;;;;11.48;64.18;100974.56;5059144;28;52493;-61
2022/01/02 05:04:41;;;;;;;;;15.00;13.50;;;;;11.51;63.88;100969.03;5074933;28;45306;-64
2022/01/02 05:07:07;;;;;;;;;15.50;11.75;;;;;11.51;63.75;100969.03;5059028;28;45495;-63
2022/01/02 05:09:33;;;;;;;;;14.00;13.75;;;;;11.50;63.78;100957.66;5059095;28;45391;-65
2022/01/02 05:11:58;;;;;;;;;13.25;13.00;;;;;11.51;63.61;100950.63;5074595;28;45888;-64
2022/01/02 05:14:24;;;;;;;;;12.00;12.00;;;;;11.50;64.17;100943.69;5058731;28;45450;-62
2022/01/02 05:16:49;;;;;;;;;13.75;11.75;;;;;11.50;63.92;100955.03;5058466;28;60557;-64
2022/01/02 05:19:14;;;;;;;;;12.25;12.25;;;;;11.50;64.09;100933.97;5059068;28;45363;-62
2022/01/02 05:21:40;;;;;;;;;10.00;10.00;;;;;11.51;63.82;100916.41;5059296;28;45440;-63
2022/01/02 05:24:05;;;;;;;;;17.00;13.25;;;;;11.53;63.50;100919.75;5058444;28;62864;-61
2022/01/02 05:26:31;;;;;;;;;15.25;12.50;;;;;11.52;63.98;100912.81;5059031;28;45802;-64
2022/01/02 05:28:56;;;;;;;;;15.00;14.00;;;;;11.54;63.17;100929.31;5058969;28;45308;-64
2022/01/02 05:31:21;;;;;;;;;13.50;12.75;;;;;11.52;63.83;100944.41;5057248;28;61272;-63
2022/01/02 05:33:47;;;;;;;;;15.50;12.50;;;;;11.53;63.36;100936.34;5056829;28;63072;-63
2022/01/02 05:36:12;;;;;;;;;12.00;12.00;;;;;11.53;62.90;100943.44;5057879;28;68826;-64
2022/01/02 05:38:38;;;;;;;;;11.75;10.00;;;;;11.52;62.61;100939.94;5058419;28;54367;-64
2022/01/02 05:41:03;;;;;;;;;11.25;10.75;;;;;11.52;62.85;100933.88;5058975;28;45250;-63
2022/01/02 05:43:29;;;;;;;;;11.00;10.00;;;;;11.54;62.99;100926.69;5058941;28;45183;-64
2022/01/02 05:45:55;;;;;;;;;12.50;11.00;;;;;11.57;62.89;100921.16;5058739;28;46612;-66
2022/01/02 05:48:20;;;;;;;;;13.00;13.00;;;;;11.58;62.57;100928.06;5057031;28;45371;-63
2022/01/02 05:50:46;;;;;;;;;12.50;11.25;;;;;11.59;62.47;100940.28;5058789;28;45373;-65
2022/01/02 05:53:11;;;;;;;;;12.50;11.00;;;;;11.61;62.61;100932.22;5058585;28;45470;-63
2022/01/02 05:55:37;;;;;;;;;12.00;10.50;;;;;11.64;62.46;100947.75;5073005;28;72620;-64
2022/01/02 05:58:03;;;;;;;;;10.00;8.75;;;;;11.66;61.92;100932.66;5058412;28;45981;-66
2022/01/02 06:00:28;;;;;;;;;12.75;10.00;;;;;11.68;61.95;100933.38;5057552;28;45390;-64
2022/01/02 06:02:54;;;;;;;;;13.00;9.00;;;;;11.70;62.35;100936.69;5058425;28;45512;-64
2022/01/02 06:05:19;;;;;;;;;13.75;10.50;;;;;11.73;62.14;100945.16;5057286;28;71277;-63
2022/01/02 06:07:44;;;;;;;;;11.50;11.25;;;;;11.75;62.38;100944.19;5057516;28;69491;-64
2022/01/02 06:10:10;;;;;;;;;10.00;8.50;;;;;11.77;62.13;100947.53;5057560;28;63572;-63
2022/01/02 06:12:35;;;;;;;;;12.50;11.75;;;;;11.78;61.79;100946.56;5057611;28;61938;-63
2022/01/02 06:15:00;;;;;;;;;13.00;11.75;;;;;11.80;61.86;100948.09;5058073;28;45172;-64
2022/01/02 06:17:26;;;;;;;;;11.75;9.00;;;;;11.82;61.33;100942.69;5058140;28;45349;-64
2022/01/02 06:19:51;;;;;;;;;11.00;10.25;;;;;11.83;61.63;100936.47;5058313;28;45251;-64
2022/01/02 06:22:17;;;;;;;;;12.75;11.25;;;;;11.85;61.39;100934.53;5058141;28;45564;-63
2022/01/02 06:24:42;;;;;;;;;13.25;11.00;;;;;11.86;61.49;100930.91;5057868;28;46310;-63
2022/01/02 06:27:08;;;;;;;;;11.00;11.00;;;;;11.88;60.92;100921.09;5057221;28;63079;-63
2022/01/02 06:29:33;;;;;;;;;9.50;9.50;;;;;11.87;61.41;100930.81;5058118;28;45362;-65
2022/01/02 06:31:59;;;;;;;;;13.50;10.00;;;;;11.88;61.10;100914.03;5073583;28;45212;-62
2022/01/02 06:34:24;;;;;;;;;9.00;8.00;;;;;11.89;60.97;100878.00;5057665;28;47982;-63
2022/01/02 06:36:50;;;;;;;;;12.50;10.50;;;;;11.91;61.26;100901.56;5057833;28;45234;-63
2022/01/02 06:39:15;;;;;;;;;12.25;10.00;;;;;11.91;61.10;100941.06;5057203;28;60981;-62
2022/01/02 06:41:40;;;;;;;;;9.50;9.25;;;;;11.92;60.85;100940.91;5057118;28;64824;-62
2022/01/02 06:44:06;;;;;;;;;11.50;9.75;;;;;11.92;61.32;100933.03;5056748;28;71681;-63
2022/01/02 06:46:31;;;;;;;;;13.75;10.00;;;;;11.92;61.19;100946.19;5057751;28;45286;-63
2022/01/02 06:48:57;;;;;;;;;11.25;9.00;;;;;11.93;60.87;100947.84;5057716;28;45307;-65
2022/01/02 06:51:22;;;;;;;;;11.00;10.00;;;;;11.94;61.26;100951.31;5057497;28;46133;-64
2022/01/02 06:53:47;;;;;;;;;10.50;9.00;;;;;11.93;61.20;100955.75;5056193;28;70491;-62
2022/01/02 06:56:13;;;;;;;;;10.75;9.75;;;;;11.93;60.49;100957.53;5056716;28;66875;-63
2022/01/02 06:58:40;;;;;;;;;9.50;9.00;;;;;11.94;61.15;100961.84;5056626;28;45353;-64
2022/01/02 07:01:05;;;;;;;;;12.25;10.50;;;;;11.94;61.24;100949.53;5057660;28;45581;-64
2022/01/02 07:03:31;;;;;;;;;9.75;9.75;;;;;11.94;60.88;100957.41;5073098;28;46331;-63
2022/01/02 07:05:56;;;;;;;;;11.50;10.00;;;;;11.97;61.36;100958.94;5055987;28;45249;-62
2022/01/02 07:08:22;;;;;;;;;10.25;9.00;;;;;11.95;61.18;100938.00;5057611;28;45705;-62
2022/01/02 07:10:48;;;;;;;;;9.50;8.50;;;;;11.94;61.05;100946.03;5056271;28;45496;-63
2022/01/02 07:13:13;;;;;;;;;10.00;10.00;;;;;11.95;61.16;100942.44;5056240;28;66047;-64
2022/01/02 07:15:38;;;;;;;;;9.75;9.00;;;;;11.94;61.29;100938.97;5072071;28;66949;-64
2022/01/02 07:18:04;;;;;;;;;10.75;9.75;;;;;11.93;60.85;100942.59;5056513;28;60895;-63
2022/01/02 07:20:29;;;;;;;;;11.25;9.75;;;;;11.91;61.31;100928.72;5056482;28;60866;-64
2022/01/02 07:22:55;;;;;;;;;12.00;10.00;;;;;11.90;61.07;100928.88;5072009;28;67637;-62
2022/01/02 07:25:20;;;;;;;;;11.25;10.00;;;;;11.88;61.17;100942.16;5056278;28;64893;-63
2022/01/02 07:27:45;;;;;;;;;15.00;12.00;;;;;11.88;61.27;100942.16;5055721;28;45267;-63
2022/01/02 07:30:11;;;;;;;;;10.50;9.25;;;;;11.85;61.25;100951.16;5056386;28;61825;-64
2022/01/02 07:32:37;;;;;;;;;11.25;9.25;;;;;11.85;61.38;100948.53;5056204;28;67354;-64
2022/01/02 07:35:06;;;;;;;;;16.00;13.75;;;;;11.85;61.46;100951.16;5056598;28;45270;-65
2022/01/02 07:37:32;;;;;;;;;13.75;12.00;;;;;11.86;62.14;100944.94;5055479;28;45234;-63
2022/01/02 07:39:57;;;;;;;;;11.75;10.00;;;;;11.86;61.56;100942.31;5056670;28;45567;-63
2022/01/02 07:42:23;;;;;;;;;14.00;12.00;;;;;11.86;61.95;100952.00;5055776;28;68229;-65
2022/01/02 07:44:48;;;;;;;;;11.00;9.00;;;;;11.87;61.88;100953.66;5056675;28;45439;-63
2022/01/02 07:47:13;;;;;;;;;13.00;9.00;;;;;11.87;62.08;100964.19;5056612;28;45831;-63
2022/01/02 07:49:39;;;;;;;;;12.75;11.25;;;;;11.90;62.04;100973.63;5072517;28;45514;-63
2022/01/02 07:52:04;;;;;;;;;16.00;13.75;;;;;11.90;61.91;100976.28;5055513;28;66913;-64
2022/01/02 07:54:30;;;;;;;;;16.00;12.00;;;;;11.92;62.28;100983.06;5056165;28;45491;-63
2022/01/02 07:56:55;;;;;;;;;13.25;12.75;;;;;11.95;62.44;100982.78;5071427;28;49202;-63
2022/01/02 07:59:20;;;;;;;;;12.25;11.00;;;;;11.96;62.25;100992.34;5056021;28;63683;-63
2022/01/02 08:01:46;;;;;;;;;12.50;10.50;;;;;11.97;62.57;100996.66;5055500;28;71599;-64
2022/01/02 08:04:11;;;;;;;;;10.50;10.50;;;;;11.98;62.22;100997.47;5054819;28;45303;-63
2022/01/02 08:06:37;;;;;;;;;12.75;11.75;;;;;11.99;62.78;101000.03;5055407;28;65115;-62
2022/01/02 08:09:02;;;;;;;;;13.00;10.25;;;;;11.99;62.31;101000.03;5056261;28;45585;-63
2022/01/02 08:11:28;;;;;;;;;14.00;11.00;;;;;11.99;62.48;101012.31;5056069;28;45335;-62
2022/01/02 08:13:53;;;;;;;;;12.00;10.75;;;;;12.00;62.46;101017.50;5056122;28;45337;-64
2022/01/02 08:16:18;;;;;;;;;13.50;11.75;;;;;12.00;62.48;101017.50;5055468;28;64346;-63
2022/01/02 08:18:44;;;;;;;;;12.25;10.75;;;;;11.99;62.48;101023.72;5055568;28;62239;-64
2022/01/02 08:21:09;;;;;;;;;12.75;10.00;;;;;11.99;62.65;101031.63;5055302;28;69782;-62
2022/01/02 08:23:34;;;;;;;;;12.25;12.00;;;;;12.00;62.39;101033.28;5054290;28;58280;-63
2022/01/02 08:26:00;;;;;;;;;13.25;10.25;;;;;11.99;62.39;101026.34;5055195;28;59183;-63
2022/01/02 08:28:26;;;;;;;;;11.75;11.00;;;;;11.99;62.96;101031.63;5056200;28;45223;-63
2022/01/02 08:30:51;;;;;;;;;11.25;11.25;;;;;12.01;63.03;101031.47;5054435;28;45433;-65
2022/01/02 08:33:16;;;;;;;;;12.25;11.00;;;;;12.02;62.96;101039.25;5055541;28;51816;-63
2022/01/02 08:35:43;;;;;;;;;10.50;9.00;;;;;12.03;62.86;101042.72;5070766;28;60569;-63
2022/01/02 08:38:08;;;;;;;;;14.50;13.00;;;;;12.06;62.64;101045.06;5071612;28;45255;-64
2022/01/02 08:40:35;;;;;;;;;14.75;11.25;;;;;12.07;63.14;101038.03;5054973;28;70577;-62
2022/01/02 08:43:00;;;;;;;;;13.75;12.75;;;;;12.07;63.05;101046.75;5055663;28;46363;-64
2022/01/02 08:45:25;;;;;;;;;15.25;14.00;;;;;12.09;62.98;101041.38;5055859;28;45387;-63
2022/01/02 08:47:51;;;;;;;;;12.75;11.00;;;;;12.10;63.30;101038.56;5054719;28;63817;-62
2022/01/02 08:50:16;;;;;;;;;14.00;11.75;;;;;12.11;63.62;101044.69;5055439;28;45511;-63
2022/01/02 08:52:42;;;;;;;;;14.25;13.00;;;;;12.12;63.56;101041.09;5054776;28;68120;-64
2022/01/02 08:55:07;;;;;;;;;11.00;10.00;;;;;12.14;63.52;101045.25;5054714;28;60144;-63
2022/01/02 08:57:32;;;;;;;;;12.50;11.00;;;;;12.16;63.14;101034.59;5055419;28;45425;-64
2022/01/02 08:59:58;;;;;;;;;14.00;12.00;;;;;12.17;63.16;101042.34;5054594;28;64313;-64
2022/01/02 09:02:23;;;;;;;;;18.25;15.00;;;;;12.20;63.32;101048.31;5055397;28;45547;-65
2022/01/02 09:04:49;;;;;;;;;12.00;11.50;;;;;12.22;63.31;101055.09;5055298;28;52638;-65
2022/01/02 09:07:14;;;;;;;;;13.75;11.50;;;;;12.23;63.55;101059.41;5055648;28;45614;-64
2022/01/02 09:09:40;;;;;;;;;20.00;17.50;;;;;12.24;63.40;101058.44;5055314;28;46650;-64
2022/01/02 09:12:06;;;;;;;;;16.25;12.50;;;;;12.27;63.60;101062.63;5055493;28;45332;-63
2022/01/02 09:14:32;;;;;;;;;17.25;14.50;;;;;12.29;63.90;101069.41;5055190;28;45393;-62
2022/01/02 09:16:57;;;;;;;;;18.75;14.50;;;;;12.29;64.13;101066.78;5055378;28;45276;-63
2022/01/02 09:19:22;;;;;;;;;18.50;14.00;;;;;12.34;63.70;101079.56;5055458;28;46060;-63
2022/01/02 09:21:48;;;;;;;;;16.25;11.25;;;;;12.37;64.36;101081.09;5055134;28;55016;-63
2022/01/02 09:24:13;;;;;;;;;16.50;15.25;;;;;12.38;63.91;101078.34;5058204;28;60132;-63
2022/01/02 09:26:38;;;;;;;;;13.25;11.00;;;;;12.40;64.28;101084.31;5056680;28;66578;-64
2022/01/02 09:29:04;;;;;;;;;13.50;12.50;;;;;12.43;64.21;101080.56;5058017;28;69949;-62
2022/01/02 09:31:29;;;;;;;;;14.00;12.00;;;;;12.44;63.85;101088.34;5058916;28;45330;-63
2022/01/02 09:33:55;;;;;;;;;15.25;14.00;;;;;12.48;64.24;101088.91;5073618;28;64769;-64
2022/01/02 09:36:20;;;;;;;;;13.00;12.75;;;;;12.51;64.12;101087.78;5058432;28;48426;-62
2022/01/02 09:38:47;;;;;;;;;13.25;13.25;;;;;12.54;64.16;101093.63;5073544;28;71213;-62
2022/01/02 09:41:12;;;;;;;;;17.75;15.00;;;;;12.60;64.11;101093.09;5058704;28;45515;-61
2022/01/02 09:43:38;;;;;;;;;12.25;10.75;;;;;12.66;63.82;101088.25;5057877;28;65151;-62
2022/01/02 09:46:03;;;;;;;;;15.25;14.75;;;;;12.72;64.06;101095.59;5057874;28;60889;-61
2022/01/02 09:48:29;;;;;;;;;15.50;14.00;;;;;12.79;63.80;101093.25;5058462;28;46497;-64
2022/01/02 09:50:55;;;;;;;;;15.00;13.25;;;;;12.87;64.08;101083.69;5058397;28;45467;-64
2022/01/02 09:53:20;;;;;;;;;16.75;16.25;;;;;12.98;63.76;101080.06;5056476;28;45488;-63
2022/01/02 09:55:46;;;;;;;;;15.00;11.75;;;;;13.11;64.06;101085.09;5058605;28;45382;-62
2022/01/02 09:58:12;;;;;;;;;17.00;13.50;;;;;13.27;63.93;101084.53;5058176;28;46355;-65
2022/01/02 10:00:39;;;;;;;;;12.50;12.50;;;;;13.44;63.73;101092.72;5057019;28;45833;-62
2022/01/02 10:03:08;;;;;;;;;12.00;12.00;;;;;13.64;63.45;101080.31;5058401;28;45440;-63
2022/01/02 10:05:48;;;;;;;;;12.00;11.00;;;;;13.87;63.29;101083.44;5058171;28;45327;-63
2022/01/02 10:08:23;;;;;;;;;12.00;11.50;;;;;14.12;62.24;101088.22;5057702;28;45557;-60
2022/01/02 10:10:48;;;;;;;;;12.00;10.50;;;;;14.34;62.25;101089.66;5058076;28;45311;-64
2022/01/02 10:13:14;;;;;;;;;13.50;13.25;;;;;14.58;61.85;101096.19;5056623;28;45449;-62
2022/01/02 10:15:39;;;;;;;;;12.00;11.75;;;;;14.83;61.42;101097.31;5073823;28;45288;-66
2022/01/02 10:18:06;;;;;;;;;13.75;11.25;;;;;15.08;60.91;101090.44;5057841;28;48380;-63
2022/01/02 10:20:36;;;;;;;;;18.00;14.25;;;;;15.36;60.58;101092.16;5056199;28;45434;-63
2022/01/02 10:23:10;;;;;;;;;16.25;11.00;;;;;15.64;59.56;101084.88;5058153;28;45230;-64
2022/01/02 10:25:39;;;;;;;;;10.50;9.25;;;;;15.90;59.10;101075.31;5058112;28;45315;-65
2022/01/02 10:28:36;;;;;;;;;12.50;9.75;;;;;16.15;58.47;101076.25;5057681;28;46378;-65
2022/01/02 10:31:09;;;;;;;;;12.75;10.50;;;;;16.39;57.63;101074.66;5057896;28;45397;-65
2022/01/02 10:33:59;;;;;;;;;11.25;10.25;;;;;16.63;57.39;101078.38;5056550;28;45366;-62
2022/01/02 10:36:29;;;;;;;;;10.25;9.75;;;;;16.83;56.71;101090.34;5057892;28;45525;-64
2022/01/02 10:38:58;;;;;;;;;8.75;8.25;;;;;16.97;55.85;101085.41;5057599;28;45269;-65
2022/01/02 10:41:53;;;;;;;;;11.75;11.00;;;;;17.13;55.69;101095.22;5057695;28;45346;-63
2022/01/02 10:44:33;;;;;;;;;11.25;10.00;;;;;17.26;55.70;101092.03;5047654;28;66544;-63
2022/01/02 10:47:17;;;;;;;;;13.50;9.25;;;;;17.33;54.69;101080.59;5056686;28;45453;-66
2022/01/02 10:50:06;;;;;;;;;13.00;10.50;;;;;17.31;54.54;101087.06;5057238;28;47087;-65
2022/01/02 10:52:42;;;;;;;;;11.25;10.25;;;;;17.25;54.60;101088.56;5072755;28;45853;-63
2022/01/02 10:55:18;;;;;;;;;11.25;6.50;;;;;17.16;54.30;101079.78;5072965;28;45258;-62
2022/01/02 10:57:49;;;;;;;;;12.75;8.50;;;;;17.05;54.72;101088.06;5073153;28;45407;-64
2022/01/02 11:00:15;;;;;;;;;5.25;5.25;;;;;16.95;54.30;101084.72;5055806;28;48073;-63
2022/01/02 11:02:40;;;;;;;;;6.25;6.25;;;;;16.85;54.83;101096.31;5057434;28;45784;-62
2022/01/02 11:05:07;;;;;;;;;6.25;6.25;;;;;16.72;54.60;101094.13;5057369;28;46106;-63
2022/01/02 11:07:40;;;;;;;;;13.00;10.25;;;;;16.59;55.24;101084.00;5072635;28;45497;-61
2022/01/02 11:10:05;;;;;;;;;7.00;7.00;;;;;16.50;55.16;101089.44;5057291;28;46424;-62
2022/01/02 11:12:31;;;;;;;;;7.00;6.75;;;;;16.39;55.35;101086.13;5056894;28;45316;-62
2022/01/02 11:14:56;;;;;;;;;6.25;6.25;;;;;16.29;55.54;101085.41;5056887;28;45429;-65
2022/01/02 11:17:22;;;;;;;;;10.75;8.00;;;;;16.20;55.57;101089.81;5055253;28;54562;-64
2022/01/02 11:19:47;;;;;;;;;8.00;7.00;;;;;16.12;56.00;101087.16;5071613;28;72300;-62